Puerto Asis, Puerto Asis Tres de Mayo Airport (SKAS)

NamePuerto Asis Tres de Mayo Airport
CityPuerto Asis
CountryColombia
ICAOSKAS
IATAPUU
Altitude248 m
CoordinatesGoogle Map
Live Air TrafficLiveATC.net
METARSKAS 262000Z 17005KT 9999 SCT030 31/22 A2983
2019-04-26 20:00:00 Wind: South-Southeast (170°) 2.57 m/s - Visibility: > 10000 m - Temperature: 31 °C - Dew point: 22 °C - Humidity: 58.7% - Pressure: 1010.16 hPa

Sorry, no flights used the airport in this database.